createdAt,value
2022-09-07T00:01:33.250Z,99.90
2022-09-07T00:04:01.859Z,99.90
2022-09-07T00:06:31.135Z,99.90
2022-09-07T00:09:01.225Z,99.90
2022-09-07T00:11:30.646Z,99.90
2022-09-07T00:13:59.219Z,99.90
2022-09-07T00:16:31.222Z,99.90
2022-09-07T00:19:04.676Z,99.90
2022-09-07T00:21:33.663Z,99.90
2022-09-07T00:24:04.192Z,99.90
2022-09-07T00:26:33.124Z,99.90
2022-09-07T00:29:04.179Z,99.90
2022-09-07T00:31:33.309Z,99.90
2022-09-07T00:34:03.360Z,99.90
2022-09-07T00:36:32.245Z,99.90
2022-09-07T00:39:02.647Z,99.90
2022-09-07T00:41:31.501Z,99.90
2022-09-07T00:44:34.981Z,99.90
2022-09-07T00:47:03.853Z,99.90
2022-09-07T00:49:32.898Z,99.90
2022-09-07T00:52:07.699Z,99.90
2022-09-07T00:54:44.032Z,99.90
2022-09-07T00:57:13.230Z,99.90
2022-09-07T00:59:48.449Z,99.90
2022-09-07T01:02:18.556Z,99.90
2022-09-07T01:04:53.086Z,99.90
2022-09-07T01:07:21.665Z,99.90
2022-09-07T01:09:51.969Z,99.90
2022-09-07T01:12:20.652Z,99.90
2022-09-07T01:14:54.141Z,99.90
2022-09-07T01:17:36.972Z,99.90
2022-09-07T01:20:50.664Z,99.90
2022-09-07T01:24:37.016Z,99.90
2022-09-07T01:28:14.335Z,99.90
2022-09-07T01:30:55.606Z,99.90
2022-09-07T01:33:49.793Z,99.90
2022-09-07T01:36:28.090Z,99.90
2022-09-07T01:39:01.907Z,99.90
2022-09-07T01:41:40.184Z,99.90
2022-09-07T01:44:13.565Z,99.90
2022-09-07T01:46:51.008Z,99.90
2022-09-07T01:49:24.420Z,99.90
2022-09-07T01:52:00.897Z,99.90
2022-09-07T01:54:34.858Z,99.90
2022-09-07T01:57:09.211Z,99.90
2022-09-07T01:59:43.072Z,99.90
2022-09-07T02:02:19.202Z,99.90
2022-09-07T02:04:53.779Z,99.90
2022-09-07T02:07:31.804Z,99.90
2022-09-07T02:10:07.958Z,99.90
2022-09-07T02:12:44.915Z,99.90
2022-09-07T02:15:20.474Z,99.90
2022-09-07T02:17:55.159Z,99.90
2022-09-07T02:20:31.368Z,99.90
2022-09-07T02:23:05.684Z,99.90
2022-09-07T02:25:41.456Z,99.90
2022-09-07T02:28:15.936Z,99.90
2022-09-07T02:30:46.009Z,99.90
2022-09-07T02:33:16.166Z,99.90
2022-09-07T02:35:44.869Z,99.90
2022-09-07T02:38:13.621Z,99.90
2022-09-07T02:40:42.248Z,99.90
2022-09-07T02:43:13.001Z,99.90
2022-09-07T02:46:03.862Z,99.90
2022-09-07T02:48:51.420Z,99.90
2022-09-07T02:51:32.983Z,99.90
2022-09-07T02:54:31.447Z,99.90
2022-09-07T02:57:13.709Z,99.90
2022-09-07T02:59:56.864Z,99.90
2022-09-07T03:02:36.897Z,99.90
2022-09-07T03:05:13.639Z,99.90
2022-09-07T03:07:52.618Z,99.90
2022-09-07T03:10:21.922Z,99.90
2022-09-07T03:12:52.559Z,99.90
2022-09-07T03:15:25.490Z,99.90
2022-09-07T03:17:55.131Z,99.90
2022-09-07T03:20:25.599Z,99.90
2022-09-07T03:22:54.321Z,99.90
2022-09-07T03:25:23.166Z,99.90
2022-09-07T03:27:51.804Z,99.90
2022-09-07T03:30:20.730Z,99.90
2022-09-07T03:32:49.404Z,99.90
2022-09-07T03:35:18.346Z,99.90
2022-09-07T03:37:48.451Z,99.90
2022-09-07T03:40:18.436Z,99.90
2022-09-07T03:42:51.039Z,99.90
2022-09-07T03:45:20.025Z,99.90
2022-09-07T03:47:49.303Z,99.90
2022-09-07T03:50:18.178Z,99.90
2022-09-07T03:52:48.423Z,99.90
2022-09-07T03:55:17.229Z,99.90
2022-09-07T03:57:45.968Z,99.90
2022-09-07T04:00:16.263Z,99.90
2022-09-07T04:02:45.010Z,99.90
2022-09-07T04:05:13.738Z,99.90
2022-09-07T04:07:42.325Z,99.90
2022-09-07T04:10:13.057Z,99.90
2022-09-07T04:12:41.889Z,99.90
2022-09-07T04:15:11.936Z,99.90
2022-09-07T04:17:40.594Z,99.90
2022-09-07T04:20:10.841Z,99.90
2022-09-07T04:22:39.462Z,99.90
2022-09-07T04:25:08.664Z,99.90
2022-09-07T04:27:38.625Z,99.90
2022-09-07T04:30:08.504Z,99.90
2022-09-07T04:32:37.282Z,99.90
2022-09-07T04:35:07.084Z,99.90
2022-09-07T04:37:35.843Z,99.90
2022-09-07T04:40:04.894Z,99.90
2022-09-07T04:42:33.541Z,99.90
2022-09-07T04:45:03.858Z,99.90
2022-09-07T04:47:32.816Z,99.90
2022-09-07T04:50:01.475Z,99.90
2022-09-07T04:52:30.265Z,99.90
2022-09-07T04:54:58.933Z,99.90
2022-09-07T04:57:27.704Z,99.90
2022-09-07T04:59:56.321Z,99.90
2022-09-07T05:02:26.506Z,99.90
2022-09-07T05:04:57.384Z,99.90
2022-09-07T05:07:29.408Z,99.90
2022-09-07T05:09:58.206Z,99.90
2022-09-07T05:12:26.985Z,99.90
2022-09-07T05:14:55.755Z,99.90
2022-09-07T05:17:25.997Z,99.90
2022-09-07T05:19:55.015Z,99.90
2022-09-07T05:22:25.055Z,99.90
2022-09-07T05:24:53.722Z,99.90
2022-09-07T05:27:22.509Z,99.90
2022-09-07T05:30:07.030Z,99.90
2022-09-07T05:32:37.293Z,99.90
2022-09-07T05:35:06.871Z,99.90
2022-09-07T05:37:35.516Z,99.90
2022-09-07T05:40:04.983Z,99.90
2022-09-07T05:42:33.730Z,99.90
2022-09-07T05:45:02.489Z,99.90
2022-09-07T05:47:31.288Z,99.90
2022-09-07T05:50:01.326Z,99.90
2022-09-07T05:52:29.965Z,99.90
2022-09-07T05:55:07.744Z,99.90
2022-09-07T05:57:47.478Z,99.90
2022-09-07T06:00:16.817Z,99.90
2022-09-07T06:02:45.912Z,99.90
2022-09-07T06:05:16.365Z,99.90
2022-09-07T06:07:48.965Z,99.90
2022-09-07T06:13:06.717Z,99.90
2022-09-07T06:15:35.332Z,99.90
2022-09-07T06:18:03.944Z,99.90
2022-09-07T06:20:34.140Z,99.90
2022-09-07T06:23:02.782Z,99.90
2022-09-07T06:25:31.476Z,99.90
2022-09-07T06:28:00.468Z,99.90
2022-09-07T06:30:29.518Z,99.90
2022-09-07T06:32:58.169Z,99.90
2022-09-07T06:35:26.831Z,99.90
2022-09-07T06:37:56.876Z,99.90
2022-09-07T06:40:25.831Z,99.90
2022-09-07T06:42:54.468Z,99.90
2022-09-07T06:45:23.709Z,99.90
2022-09-07T06:47:55.547Z,99.90
2022-09-07T06:50:24.106Z,99.90
2022-09-07T06:55:46.699Z,99.90
2022-09-07T06:58:15.294Z,99.90
2022-09-07T07:00:44.172Z,99.90
2022-09-07T07:03:13.010Z,99.90
2022-09-07T07:05:41.731Z,99.90
2022-09-07T07:08:10.367Z,99.90
2022-09-07T07:10:40.379Z,99.70
2022-09-07T07:13:10.780Z,99.10
2022-09-07T07:15:39.511Z,99.40
2022-09-07T07:18:20.223Z,98.90
2022-09-07T07:20:49.764Z,99.20
2022-09-07T07:23:18.537Z,99.20
2022-09-07T07:25:47.217Z,99.90
2022-09-07T07:31:11.337Z,99.90
2022-09-07T07:33:42.719Z,99.90
2022-09-07T07:36:14.148Z,99.90
2022-09-07T07:39:00.392Z,99.90
2022-09-07T07:44:23.092Z,98.80
2022-09-07T07:46:52.488Z,97.10
2022-09-07T07:49:21.416Z,96.00
2022-09-07T07:54:38.678Z,94.90
2022-09-07T07:57:07.890Z,95.90
2022-09-07T07:59:37.927Z,96.00
2022-09-07T08:02:09.217Z,95.60
2022-09-07T08:04:38.083Z,94.30
2022-09-07T08:07:10.759Z,93.30
2022-09-07T08:09:41.626Z,94.10
2022-09-07T08:12:12.341Z,93.70
2022-09-07T08:14:42.517Z,93.00
2022-09-07T08:17:13.260Z,93.20
2022-09-07T08:19:42.597Z,92.50
2022-09-07T08:22:13.033Z,91.60
2022-09-07T08:24:41.924Z,90.70
2022-09-07T08:27:10.510Z,88.70
2022-09-07T08:29:39.081Z,89.60
2022-09-07T08:32:09.452Z,90.60
2022-09-07T08:34:38.551Z,91.20
2022-09-07T08:37:07.537Z,91.20
2022-09-07T08:39:36.807Z,91.80
2022-09-07T08:42:43.931Z,91.60
2022-09-07T08:45:22.104Z,90.30
2022-09-07T08:47:54.093Z,87.20
2022-09-07T08:50:29.176Z,86.70
2022-09-07T08:53:06.174Z,86.70
2022-09-07T08:55:40.331Z,85.10
2022-09-07T08:58:32.516Z,83.30
2022-09-07T09:04:20.573Z,79.80
2022-09-07T09:07:09.999Z,80.50
2022-09-07T09:10:12.828Z,81.30
2022-09-07T09:13:01.465Z,79.60
2022-09-07T09:15:48.607Z,80.20
2022-09-07T09:18:38.051Z,79.50
2022-09-07T09:21:16.235Z,78.70
2022-09-07T09:23:48.848Z,77.10
2022-09-07T09:26:24.870Z,78.80
2022-09-07T09:28:53.878Z,79.80
2022-09-07T09:31:26.009Z,80.30
2022-09-07T09:34:12.083Z,80.20
2022-09-07T09:36:49.466Z,79.70
2022-09-07T09:39:33.969Z,77.60
2022-09-07T09:42:18.656Z,78.60
2022-09-07T09:44:48.170Z,79.90
2022-09-07T09:47:32.967Z,77.90
2022-09-07T09:50:07.021Z,78.70
2022-09-07T09:52:49.249Z,80.50
2022-09-07T09:55:36.585Z,79.40
2022-09-07T10:06:23.289Z,78.50
2022-09-07T10:08:59.147Z,79.00
2022-09-07T10:14:38.445Z,79.50
2022-09-07T10:17:20.923Z,78.70
2022-09-07T10:19:50.157Z,80.60
2022-09-07T10:22:31.270Z,81.60
2022-09-07T10:25:03.039Z,80.00
2022-09-07T10:27:36.178Z,79.60
2022-09-07T10:30:15.020Z,78.20
2022-09-07T10:32:59.972Z,78.70
2022-09-07T10:35:32.906Z,78.70
2022-09-07T10:38:16.813Z,77.20
2022-09-07T10:40:54.454Z,78.50
2022-09-07T10:43:42.467Z,78.30
2022-09-07T10:46:57.002Z,80.30
2022-09-07T10:49:33.756Z,81.70
2022-09-07T10:52:15.621Z,84.30
2022-09-07T10:54:54.158Z,84.10
2022-09-07T10:57:39.190Z,84.90
2022-09-07T11:00:13.285Z,83.40
2022-09-07T11:03:29.037Z,84.10
2022-09-07T11:06:20.085Z,85.10
2022-09-07T11:09:30.550Z,83.00
2022-09-07T11:12:05.562Z,82.90
2022-09-07T11:14:42.896Z,81.30
2022-09-07T11:17:19.747Z,81.90
2022-09-07T11:19:57.780Z,82.90
2022-09-07T11:22:38.491Z,83.00
2022-09-07T11:25:35.839Z,82.30
2022-09-07T11:28:13.589Z,81.10
2022-09-07T11:30:50.176Z,81.00
2022-09-07T11:33:25.568Z,80.40
2022-09-07T11:36:02.370Z,80.90
2022-09-07T11:38:36.588Z,84.30
2022-09-07T11:41:25.565Z,85.70
2022-09-07T11:44:05.564Z,82.60
2022-09-07T11:46:43.400Z,84.20
2022-09-07T11:49:21.179Z,85.00
2022-09-07T11:51:56.768Z,84.90
2022-09-07T11:54:40.837Z,85.10
2022-09-07T11:58:01.321Z,84.30
2022-09-07T12:00:48.978Z,85.80
2022-09-07T12:03:54.960Z,84.50
2022-09-07T12:07:05.436Z,85.10
2022-09-07T12:09:56.799Z,86.20
2022-09-07T12:13:06.659Z,86.50
2022-09-07T12:15:49.026Z,88.30
2022-09-07T12:18:44.186Z,91.00
2022-09-07T12:21:33.349Z,88.80
2022-09-07T12:24:05.355Z,90.30
2022-09-07T12:26:53.423Z,89.70
2022-09-07T12:29:26.241Z,89.60
2022-09-07T12:31:59.689Z,91.50
2022-09-07T12:34:53.680Z,91.60
2022-09-07T12:37:43.880Z,90.80
2022-09-07T12:41:01.685Z,89.30
2022-09-07T12:44:02.017Z,89.50
2022-09-07T12:46:57.214Z,89.60
2022-09-07T12:50:15.413Z,90.20
2022-09-07T12:52:52.902Z,90.20
2022-09-07T12:59:05.659Z,90.20
2022-09-07T13:01:51.571Z,91.10
2022-09-07T13:04:53.205Z,92.30
2022-09-07T13:08:15.059Z,91.60
2022-09-07T13:10:46.511Z,91.80
2022-09-07T13:17:15.939Z,86.20
2022-09-07T13:20:18.457Z,85.70
2022-09-07T13:23:30.085Z,85.80
2022-09-07T13:26:01.451Z,89.10
2022-09-07T13:28:57.083Z,87.50
2022-09-07T13:31:52.950Z,85.30
2022-09-07T13:34:49.113Z,86.50
2022-09-07T13:37:23.800Z,87.10
2022-09-07T13:39:56.986Z,87.50
2022-09-07T13:42:30.926Z,89.10
2022-09-07T13:45:02.578Z,88.00
2022-09-07T13:47:53.223Z,88.80
2022-09-07T13:50:40.789Z,88.20
2022-09-07T13:53:57.185Z,87.30
2022-09-07T13:56:42.422Z,86.80
2022-09-07T13:59:20.609Z,87.00
2022-09-07T14:01:51.506Z,86.80
2022-09-07T14:04:28.167Z,87.20
2022-09-07T14:07:04.052Z,87.30
2022-09-07T14:09:35.845Z,87.50
2022-09-07T14:12:14.822Z,87.60
2022-09-07T14:14:43.351Z,87.80
2022-09-07T14:17:17.775Z,89.00
2022-09-07T14:19:50.830Z,86.20
2022-09-07T14:22:23.028Z,86.00
2022-09-07T14:24:56.737Z,86.60
2022-09-07T14:27:32.570Z,85.70
2022-09-07T14:30:18.202Z,85.60
2022-09-07T14:32:48.815Z,86.10
2022-09-07T14:35:21.492Z,87.10
2022-09-07T14:37:51.308Z,87.10
2022-09-07T14:40:24.569Z,88.20
2022-09-07T14:42:56.370Z,87.90
2022-09-07T14:45:37.678Z,88.60
2022-09-07T14:48:16.438Z,86.40
2022-09-07T14:51:01.055Z,86.50
2022-09-07T14:53:39.502Z,88.60
2022-09-07T14:56:12.209Z,89.10
2022-09-07T14:58:41.011Z,89.30
2022-09-07T15:04:20.287Z,89.20
2022-09-07T15:07:04.551Z,89.70
2022-09-07T15:09:39.356Z,90.20
2022-09-07T15:12:27.158Z,90.30
2022-09-07T15:15:22.139Z,90.90
2022-09-07T15:17:50.831Z,91.10
2022-09-07T15:20:44.234Z,91.40
2022-09-07T15:23:15.467Z,91.30
2022-09-07T15:25:50.720Z,91.40
2022-09-07T15:34:13.224Z,91.50
2022-09-07T15:36:44.726Z,91.70
2022-09-07T15:39:20.521Z,91.50
2022-09-07T15:41:51.470Z,91.40
2022-09-07T15:44:25.184Z,91.20
2022-09-07T15:49:50.118Z,91.20
2022-09-07T15:52:19.928Z,91.30
2022-09-07T15:54:48.574Z,91.50
2022-09-07T15:57:59.224Z,92.50
2022-09-07T16:00:25.479Z,93.20
2022-09-07T16:03:09.938Z,93.90
2022-09-07T16:05:44.135Z,94.40
2022-09-07T16:08:32.762Z,96.30
2022-09-07T16:11:17.998Z,96.10
2022-09-07T16:13:48.126Z,96.60
2022-09-07T16:16:18.514Z,97.10
2022-09-07T16:18:47.687Z,97.60
2022-09-07T16:21:17.482Z,97.90
2022-09-07T16:23:49.294Z,98.20
2022-09-07T16:26:20.448Z,98.70
2022-09-07T16:28:51.361Z,98.90
2022-09-07T16:31:26.491Z,99.30
2022-09-07T16:33:56.026Z,99.40
2022-09-07T16:36:25.433Z,98.90
2022-09-07T16:38:58.007Z,99.10
2022-09-07T16:41:29.425Z,99.30
2022-09-07T16:43:59.149Z,99.30
2022-09-07T16:46:33.047Z,99.50
2022-09-07T16:49:01.662Z,99.90
2022-09-07T16:51:30.312Z,99.90
2022-09-07T16:53:59.809Z,99.90
2022-09-07T16:56:35.686Z,99.90
2022-09-07T16:59:09.593Z,99.90
2022-09-07T17:01:39.802Z,99.90
2022-09-07T17:04:11.297Z,99.90
2022-09-07T17:06:41.823Z,99.90
2022-09-07T17:09:12.353Z,99.90
2022-09-07T17:11:41.610Z,99.90
2022-09-07T17:14:10.195Z,99.90
2022-09-07T17:16:42.339Z,99.90
2022-09-07T17:19:30.060Z,99.90
2022-09-07T17:22:00.002Z,99.90
2022-09-07T17:24:29.657Z,99.90
2022-09-07T17:27:01.457Z,99.90
2022-09-07T17:29:36.995Z,99.90
2022-09-07T17:32:24.421Z,99.90
2022-09-07T17:34:55.422Z,99.90
2022-09-07T17:37:24.279Z,99.90
2022-09-07T17:39:53.617Z,99.90
2022-09-07T17:42:24.603Z,99.90
2022-09-07T17:44:53.504Z,99.90
2022-09-07T17:47:23.529Z,99.90
2022-09-07T17:49:52.167Z,99.90
2022-09-07T17:52:20.892Z,99.90
2022-09-07T17:54:49.551Z,99.90
2022-09-07T17:57:18.271Z,99.90
2022-09-07T18:02:37.594Z,99.90
2022-09-07T18:05:07.501Z,99.90
2022-09-07T18:07:36.331Z,99.90
2022-09-07T18:10:05.247Z,99.90
2022-09-07T18:12:34.015Z,99.90
2022-09-07T18:15:03.617Z,99.90
2022-09-07T18:17:32.859Z,99.90
2022-09-07T18:20:04.098Z,99.90
2022-09-07T18:22:34.585Z,99.90
2022-09-07T18:25:03.934Z,99.90
2022-09-07T18:27:32.631Z,99.90
2022-09-07T18:30:01.494Z,99.90
2022-09-07T18:32:31.650Z,99.90
2022-09-07T18:35:00.793Z,99.90
2022-09-07T18:37:32.239Z,99.90
2022-09-07T18:40:01.065Z,99.90
2022-09-07T18:42:30.383Z,99.90
2022-09-07T18:47:48.136Z,99.90
2022-09-07T18:50:17.529Z,99.90
2022-09-07T18:52:59.088Z,99.90
2022-09-07T18:55:33.010Z,99.90
2022-09-07T18:58:03.087Z,99.90
2022-09-07T19:00:31.948Z,99.90
2022-09-07T19:03:00.901Z,99.90
2022-09-07T19:08:19.981Z,99.90
2022-09-07T19:10:49.091Z,99.90
2022-09-07T19:13:18.106Z,99.90
2022-09-07T19:15:47.199Z,99.90
2022-09-07T19:18:15.870Z,99.90
2022-09-07T19:20:44.781Z,99.90
2022-09-07T19:23:13.554Z,99.90
2022-09-07T19:25:43.991Z,99.90
2022-09-07T19:28:12.801Z,99.90
2022-09-07T19:30:41.405Z,99.90
2022-09-07T19:33:12.184Z,99.90
2022-09-07T19:35:40.790Z,99.90
2022-09-07T19:38:09.580Z,99.90
2022-09-07T19:40:38.542Z,99.90
2022-09-07T19:43:08.507Z,99.90
2022-09-07T19:45:40.676Z,99.90
2022-09-07T19:48:09.321Z,99.90
2022-09-07T19:50:37.940Z,99.90
2022-09-07T19:53:06.574Z,99.90
2022-09-07T19:55:35.198Z,99.90
2022-09-07T19:58:03.930Z,99.90
2022-09-07T20:00:34.236Z,99.90
2022-09-07T20:03:02.920Z,99.90
2022-09-07T20:05:31.454Z,99.90
2022-09-07T20:08:00.053Z,99.90
2022-09-07T20:10:28.631Z,99.90
2022-09-07T20:12:57.134Z,99.90
2022-09-07T20:15:26.225Z,99.90
2022-09-07T20:17:56.299Z,99.90
2022-09-07T20:20:24.971Z,99.90
2022-09-07T20:22:53.523Z,99.90
2022-09-07T20:25:22.867Z,99.90
2022-09-07T20:27:51.484Z,99.90
2022-09-07T20:30:20.170Z,99.90
2022-09-07T20:32:49.052Z,99.90
2022-09-07T20:35:19.136Z,99.90
2022-09-07T20:37:48.312Z,99.90
2022-09-07T20:40:17.132Z,99.90
2022-09-07T20:42:45.895Z,99.90
2022-09-07T20:45:14.449Z,99.90
2022-09-07T20:47:44.660Z,99.90
2022-09-07T20:50:13.163Z,99.90
2022-09-07T20:52:43.084Z,99.90
2022-09-07T20:55:11.679Z,99.90
2022-09-07T20:57:40.731Z,99.90
2022-09-07T21:00:10.722Z,99.90
2022-09-07T21:02:39.353Z,99.90
2022-09-07T21:05:08.728Z,99.90
2022-09-07T21:07:40.069Z,99.90
2022-09-07T21:10:11.317Z,99.90
2022-09-07T21:12:39.920Z,99.90
2022-09-07T21:15:10.134Z,99.90
2022-09-07T21:17:39.296Z,99.90
2022-09-07T21:20:09.609Z,99.90
2022-09-07T21:22:38.237Z,99.90
2022-09-07T21:25:10.665Z,99.90
2022-09-07T21:27:39.261Z,99.90
2022-09-07T21:30:09.513Z,99.90
2022-09-07T21:32:38.129Z,99.90
2022-09-07T21:35:08.047Z,99.90
2022-09-07T21:37:36.664Z,99.90
2022-09-07T21:40:07.458Z,99.90
2022-09-07T21:42:37.545Z,99.90
2022-09-07T21:45:07.599Z,99.90
2022-09-07T21:47:36.170Z,99.90
2022-09-07T21:50:06.231Z,99.90
2022-09-07T21:52:34.944Z,99.90
2022-09-07T21:55:03.671Z,99.90
2022-09-07T21:57:32.385Z,99.90
2022-09-07T22:00:02.779Z,99.90
2022-09-07T22:02:31.333Z,99.90
2022-09-07T22:04:59.956Z,99.90
2022-09-07T22:07:28.564Z,99.90
2022-09-07T22:09:57.215Z,99.90
2022-09-07T22:12:25.717Z,99.90
2022-09-07T22:14:54.334Z,99.90
2022-09-07T22:17:24.400Z,99.90
2022-09-07T22:19:52.940Z,99.90
2022-09-07T22:22:21.573Z,99.90
2022-09-07T22:24:50.092Z,99.90
2022-09-07T22:27:18.711Z,99.90
2022-09-07T22:29:47.220Z,99.90
2022-09-07T22:32:15.765Z,99.90
2022-09-07T22:34:45.744Z,99.90
2022-09-07T22:37:14.280Z,99.90
2022-09-07T22:39:42.896Z,99.90
2022-09-07T22:42:11.660Z,99.90
2022-09-07T22:44:40.237Z,99.90
2022-09-07T22:47:10.248Z,99.90
2022-09-07T22:49:38.777Z,99.90
2022-09-07T22:52:08.693Z,99.90
2022-09-07T22:54:37.288Z,99.90
2022-09-07T22:57:06.586Z,99.90
2022-09-07T22:59:35.683Z,99.90
2022-09-07T23:02:04.277Z,99.90
2022-09-07T23:04:34.406Z,99.90
2022-09-07T23:07:03.173Z,99.90
2022-09-07T23:09:33.113Z,99.90
2022-09-07T23:12:01.713Z,99.90
2022-09-07T23:14:31.004Z,99.90
2022-09-07T23:17:00.030Z,99.90
2022-09-07T23:19:28.577Z,99.90
2022-09-07T23:21:57.440Z,99.90
2022-09-07T23:24:26.118Z,99.90
2022-09-07T23:26:56.164Z,99.90
2022-09-07T23:29:24.723Z,99.90
2022-09-07T23:31:53.614Z,99.90
2022-09-07T23:34:22.225Z,99.90
2022-09-07T23:36:50.979Z,99.90
2022-09-07T23:39:19.636Z,99.90
2022-09-07T23:41:48.187Z,99.90
2022-09-07T23:44:18.197Z,99.90
2022-09-07T23:46:46.762Z,99.90
2022-09-07T23:49:15.565Z,99.90
2022-09-07T23:51:44.208Z,99.90
2022-09-07T23:54:12.857Z,99.90
2022-09-07T23:56:41.591Z,99.90
2022-09-07T23:59:10.819Z,99.90
